createdAt,value
2018-04-10T00:00:56.506Z,1011.82
2018-04-10T00:01:57.084Z,1011.87
2018-04-10T00:02:57.659Z,1011.82
2018-04-10T00:03:58.233Z,1011.80
2018-04-10T00:04:58.859Z,1011.78
2018-04-10T00:05:59.437Z,1011.78
2018-04-10T00:07:00.053Z,1011.72
2018-04-10T00:08:00.679Z,1011.74
2018-04-10T00:09:01.255Z,1011.75
2018-04-10T00:10:01.831Z,1011.80
2018-04-10T00:11:02.408Z,1011.68
2018-04-10T00:12:03.036Z,1011.64
2018-04-10T00:13:03.612Z,1011.66
2018-04-10T00:14:04.189Z,1011.63
2018-04-10T00:15:04.768Z,1011.66
2018-04-10T00:16:05.387Z,1011.64
2018-04-10T00:17:05.965Z,1011.58
2018-04-10T00:18:06.545Z,1011.65
2018-04-10T00:19:07.122Z,1011.57
2018-04-10T00:20:07.693Z,1011.63
2018-04-10T00:21:08.320Z,1011.55
2018-04-10T00:22:08.897Z,1011.49
2018-04-10T00:23:09.476Z,1011.46
2018-04-10T00:24:10.054Z,1011.42
2018-04-10T00:25:10.634Z,1011.38
2018-04-10T00:26:11.256Z,1011.32
2018-04-10T00:27:11.832Z,1011.34
2018-04-10T00:28:12.409Z,1011.31
2018-04-10T00:29:12.984Z,1011.21
2018-04-10T00:30:13.560Z,1011.24
2018-04-10T00:31:14.137Z,1011.20
2018-04-10T00:32:14.760Z,1011.21
2018-04-10T00:33:15.336Z,1011.27
2018-04-10T00:34:15.913Z,1011.25
2018-04-10T00:35:16.491Z,1011.22
2018-04-10T00:36:17.068Z,1011.23
2018-04-10T00:37:17.644Z,1011.19
2018-04-10T00:38:18.219Z,1011.27
2018-04-10T00:39:18.798Z,1011.16
2018-04-10T00:40:19.373Z,1011.10
2018-04-10T00:41:20.001Z,1011.03
2018-04-10T00:42:20.573Z,1011.04
2018-04-10T00:43:21.150Z,1011.00
2018-04-10T00:44:21.775Z,1011.01
2018-04-10T00:45:22.353Z,1010.93
2018-04-10T00:46:22.930Z,1010.89
2018-04-10T00:47:23.507Z,1010.88
2018-04-10T00:48:24.133Z,1010.91
2018-04-10T00:49:24.712Z,1010.84
2018-04-10T00:50:25.287Z,1010.80
2018-04-10T00:51:25.862Z,1010.75
2018-04-10T00:52:26.435Z,1010.72
2018-04-10T00:53:27.013Z,1010.72
2018-04-10T00:54:27.589Z,1010.69
2018-04-10T00:55:28.163Z,1010.68
2018-04-10T00:56:28.887Z,1010.72
2018-04-10T00:57:29.468Z,1010.61
2018-04-10T00:58:30.036Z,1010.49
2018-04-10T00:59:30.661Z,1010.47
2018-04-10T01:00:31.238Z,1010.48
2018-04-10T01:01:31.814Z,1010.38
2018-04-10T01:02:32.389Z,1010.39
2018-04-10T01:03:32.966Z,1010.44
2018-04-10T01:04:33.545Z,1010.35
2018-04-10T01:05:34.171Z,1010.26
2018-04-10T01:06:34.750Z,1010.24
2018-04-10T01:07:35.324Z,1010.18
2018-04-10T01:08:35.900Z,1010.20
2018-04-10T01:09:36.475Z,1010.11
2018-04-10T01:10:37.050Z,1010.03
2018-04-10T01:11:37.627Z,1010.07
2018-04-10T01:12:38.207Z,1010.08
2018-04-10T01:13:38.781Z,1009.98
2018-04-10T01:14:39.409Z,1009.98
2018-04-10T01:15:40.032Z,1009.96
2018-04-10T01:16:40.608Z,1009.82
2018-04-10T01:17:41.185Z,1009.80
2018-04-10T01:18:41.763Z,1009.82
2018-04-10T01:19:42.339Z,1009.77
2018-04-10T01:20:42.913Z,1009.73
2018-04-10T01:21:43.488Z,1009.71
2018-04-10T01:22:44.063Z,1009.70
2018-04-10T01:23:44.687Z,1009.63
2018-04-10T01:24:45.265Z,1009.65
2018-04-10T01:25:45.882Z,1009.56
2018-04-10T01:26:46.458Z,1009.58
2018-04-10T01:27:47.033Z,1009.54
2018-04-10T01:28:47.609Z,1009.47
2018-04-10T01:29:48.187Z,1009.52
2018-04-10T01:30:48.757Z,1009.43
2018-04-10T01:31:49.483Z,1009.43
2018-04-10T01:32:50.108Z,1009.42
2018-04-10T01:33:50.689Z,1009.45
2018-04-10T01:34:51.265Z,1009.38
2018-04-10T01:35:51.840Z,1009.33
2018-04-10T01:36:52.416Z,1009.31
2018-04-10T01:37:52.990Z,1009.25
2018-04-10T01:38:53.565Z,1009.23
2018-04-10T01:39:54.142Z,1009.15
2018-04-10T01:40:54.720Z,1009.13
2018-04-10T01:41:55.295Z,1009.02
2018-04-10T01:42:55.871Z,1009.01
2018-04-10T01:43:56.447Z,1008.99
2018-04-10T01:44:57.019Z,1009.04
2018-04-10T01:45:57.594Z,1008.98
2018-04-10T01:46:58.167Z,1008.95
2018-04-10T01:47:58.791Z,1009.05
2018-04-10T01:48:59.365Z,1008.84
2018-04-10T01:49:59.991Z,1008.90
2018-04-10T01:51:00.565Z,1008.86
2018-04-10T01:52:01.140Z,1008.83
2018-04-10T01:53:01.764Z,1008.81
2018-04-10T01:54:02.339Z,1008.74
2018-04-10T01:55:02.914Z,1008.70
2018-04-10T01:56:03.488Z,1008.65
2018-04-10T01:57:04.064Z,1008.59
2018-04-10T01:58:04.639Z,1008.52
2018-04-10T01:59:05.216Z,1008.42
2018-04-10T02:00:05.790Z,1008.41
2018-04-10T02:01:06.364Z,1008.43
2018-04-10T02:02:06.937Z,1008.35
2018-04-10T02:03:07.512Z,1008.30
2018-04-10T02:04:08.086Z,1008.23
2018-04-10T02:05:08.659Z,1008.25
2018-04-10T02:06:09.235Z,1008.22
2018-04-10T02:07:09.858Z,1008.08
2018-04-10T02:08:10.438Z,1008.08
2018-04-10T02:09:11.058Z,1008.09
2018-04-10T02:10:11.683Z,1008.01
2018-04-10T02:11:12.261Z,1007.97
2018-04-10T02:12:12.830Z,1007.94
2018-04-10T02:13:13.405Z,1007.91
2018-04-10T02:14:13.980Z,1007.99
2018-04-10T02:15:14.556Z,1007.89
2018-04-10T02:16:15.131Z,1007.83
2018-04-10T02:17:15.706Z,1007.77
2018-04-10T02:18:16.283Z,1007.68
2018-04-10T02:19:16.857Z,1007.69
2018-04-10T02:20:17.430Z,1007.74
2018-04-10T02:21:18.005Z,1007.59
2018-04-10T02:22:18.579Z,1007.49
2018-04-10T02:23:19.195Z,1007.51
2018-04-10T02:24:19.810Z,1007.46
2018-04-10T02:25:20.384Z,1007.43
2018-04-10T02:26:21.007Z,1007.34
2018-04-10T02:27:21.635Z,1007.25
2018-04-10T02:28:22.256Z,1007.30
2018-04-10T02:29:22.830Z,1007.26
2018-04-10T02:30:23.404Z,1007.30
2018-04-10T02:31:24.034Z,1007.26
2018-04-10T02:32:24.644Z,1007.18
2018-04-10T02:33:25.226Z,1007.23
2018-04-10T02:34:25.796Z,1007.22
2018-04-10T02:35:26.371Z,1007.19
2018-04-10T02:36:26.946Z,1007.19
2018-04-10T02:37:27.521Z,1007.20
2018-04-10T02:38:28.094Z,1007.12
2018-04-10T02:39:28.669Z,1007.17
2018-04-10T02:40:29.243Z,1007.00
2018-04-10T02:41:29.818Z,1007.04
2018-04-10T02:42:30.391Z,1007.14
2018-04-10T02:43:30.966Z,1007.05
2018-04-10T02:44:31.538Z,1006.93
2018-04-10T02:45:32.114Z,1006.96
2018-04-10T02:46:32.728Z,1006.88
2018-04-10T02:47:33.351Z,1006.84
2018-04-10T02:48:33.977Z,1006.86
2018-04-10T02:49:34.550Z,1006.80
2018-04-10T02:50:35.177Z,1006.81
2018-04-10T02:51:35.790Z,1006.78
2018-04-10T02:52:36.416Z,1006.75
2018-04-10T02:53:36.991Z,1006.61
2018-04-10T02:54:37.565Z,1006.62
2018-04-10T02:55:38.142Z,1006.54
2018-04-10T02:56:38.714Z,1006.52
2018-04-10T02:57:39.289Z,1006.58
2018-04-10T02:58:39.863Z,1006.41
2018-04-10T02:59:40.442Z,1006.40
2018-04-10T03:00:41.012Z,1006.33
2018-04-10T03:01:41.586Z,1006.41
2018-04-10T03:02:42.160Z,1006.33
2018-04-10T03:03:42.783Z,1006.46
2018-04-10T03:04:43.359Z,1006.30
2018-04-10T03:05:43.933Z,1006.37
2018-04-10T03:06:44.508Z,1006.39
2018-04-10T03:07:45.132Z,1006.27
2018-04-10T03:08:45.756Z,1006.34
2018-04-10T03:09:46.333Z,1006.38
2018-04-10T03:10:46.906Z,1006.34
2018-04-10T03:11:47.483Z,1006.45
2018-04-10T03:12:48.056Z,1006.40
2018-04-10T03:13:48.631Z,1006.37
2018-04-10T03:14:49.212Z,1006.41
2018-04-10T03:15:49.826Z,1006.37
2018-04-10T03:16:50.399Z,1006.43
2018-04-10T03:17:50.975Z,1006.40
2018-04-10T03:18:51.547Z,1006.41
2018-04-10T03:19:52.121Z,1006.35
2018-04-10T03:20:52.694Z,1006.31
2018-04-10T03:21:53.317Z,1006.34
2018-04-10T03:22:53.893Z,1006.26
2018-04-10T03:23:54.517Z,1006.27
2018-04-10T03:24:55.091Z,1006.31
2018-04-10T03:25:55.665Z,1006.16
2018-04-10T03:26:56.240Z,1006.07
2018-04-10T03:27:56.813Z,1006.09
2018-04-10T03:28:57.587Z,1006.00
2018-04-10T03:29:58.161Z,1006.19
2018-04-10T03:30:58.736Z,1006.05
2018-04-10T03:31:59.310Z,1006.09
2018-04-10T03:32:59.895Z,1006.03
2018-04-10T03:34:00.508Z,1006.02
2018-04-10T03:35:01.080Z,1006.05
2018-04-10T03:36:01.654Z,1005.96
2018-04-10T03:37:02.276Z,1006.00
2018-04-10T03:38:02.852Z,1005.94
2018-04-10T03:39:03.522Z,1005.91
2018-04-10T03:40:04.095Z,1005.92
2018-04-10T03:41:04.717Z,1005.91
2018-04-10T03:42:05.292Z,1005.89
2018-04-10T03:43:05.867Z,1005.83
2018-04-10T03:44:06.440Z,1005.76
2018-04-10T03:45:07.015Z,1005.73
2018-04-10T03:46:07.640Z,1005.71
2018-04-10T03:47:08.214Z,1005.71
2018-04-10T03:48:08.787Z,1005.75
2018-04-10T03:49:09.365Z,1005.69
2018-04-10T03:50:09.936Z,1005.65
2018-04-10T03:51:10.510Z,1005.70
2018-04-10T03:52:11.085Z,1005.61
2018-04-10T03:53:11.657Z,1005.55
2018-04-10T03:54:12.280Z,1005.64
2018-04-10T03:55:12.855Z,1005.60
2018-04-10T03:56:13.431Z,1005.49
2018-04-10T03:57:14.047Z,1005.54
2018-04-10T03:58:14.622Z,1005.58
2018-04-10T03:59:15.196Z,1005.60
2018-04-10T04:00:15.921Z,1005.52
2018-04-10T04:01:16.496Z,1005.52
2018-04-10T04:02:17.069Z,1005.55
2018-04-10T04:03:17.693Z,1005.63
2018-04-10T04:04:18.269Z,1005.59
2018-04-10T04:05:18.844Z,1005.53
2018-04-10T04:06:19.420Z,1005.48
2018-04-10T04:07:19.993Z,1005.45
2018-04-10T04:08:20.568Z,1005.46
2018-04-10T04:09:21.142Z,1005.52
2018-04-10T04:10:21.717Z,1005.52
2018-04-10T04:11:22.291Z,1005.55
2018-04-10T04:12:22.916Z,1005.50
2018-04-10T04:13:23.542Z,1005.37
2018-04-10T04:14:24.115Z,1005.40
2018-04-10T04:15:24.690Z,1005.35
2018-04-10T04:16:25.264Z,1005.36
2018-04-10T04:17:25.840Z,1005.33
2018-04-10T04:18:26.464Z,1005.32
2018-04-10T04:19:27.089Z,1005.24
2018-04-10T04:20:27.664Z,1005.33
2018-04-10T04:21:28.237Z,1005.25
2018-04-10T04:22:29.012Z,1005.21
2018-04-10T04:23:29.588Z,1005.23
2018-04-10T04:24:30.163Z,1005.17
2018-04-10T04:25:30.738Z,1005.16
2018-04-10T04:26:31.314Z,1005.19
2018-04-10T04:27:31.888Z,1005.21
2018-04-10T04:28:32.513Z,1005.13
2018-04-10T04:29:33.140Z,1005.19
2018-04-10T04:30:33.713Z,1005.10
2018-04-10T04:31:34.289Z,1005.13
2018-04-10T04:32:34.864Z,1005.06
2018-04-10T04:33:35.482Z,1005.00
2018-04-10T04:34:36.054Z,1004.95
2018-04-10T04:35:36.629Z,1004.93
2018-04-10T04:36:37.202Z,1004.95
2018-04-10T04:37:37.826Z,1004.95
2018-04-10T04:38:38.402Z,1004.92
2018-04-10T04:39:39.016Z,1004.96
2018-04-10T04:40:39.643Z,1004.98
2018-04-10T04:41:40.217Z,1005.02
2018-04-10T04:42:40.793Z,1004.94
2018-04-10T04:43:41.367Z,1004.98
2018-04-10T04:44:41.941Z,1005.00
2018-04-10T04:45:42.514Z,1004.86
2018-04-10T04:46:43.140Z,1004.84
2018-04-10T04:47:43.755Z,1004.93
2018-04-10T04:48:44.329Z,1004.86
2018-04-10T04:49:44.905Z,1004.85
2018-04-10T04:50:45.480Z,1004.79
2018-04-10T04:51:46.055Z,1004.85
2018-04-10T04:52:46.630Z,1004.81
2018-04-10T04:53:47.204Z,1004.82
2018-04-10T04:54:47.779Z,1004.74
2018-04-10T04:55:48.403Z,1004.74
2018-04-10T04:56:48.979Z,1004.74
2018-04-10T04:57:49.553Z,1004.76
2018-04-10T04:58:50.128Z,1004.74
2018-04-10T04:59:50.703Z,1004.74
2018-04-10T05:00:51.279Z,1004.70
2018-04-10T05:01:51.902Z,1004.64
2018-04-10T05:02:52.477Z,1004.65
2018-04-10T05:03:53.049Z,1004.68
2018-04-10T05:04:53.624Z,1004.74
2018-04-10T05:05:54.347Z,1004.74
2018-04-10T05:06:54.920Z,1004.66
2018-04-10T05:07:55.494Z,1004.69
2018-04-10T05:08:56.068Z,1004.60
2018-04-10T05:09:56.649Z,1004.65
2018-04-10T05:10:57.307Z,1004.64
2018-04-10T05:11:57.881Z,1004.74
2018-04-10T05:12:58.459Z,1004.68
2018-04-10T05:13:59.033Z,1004.61
2018-04-10T05:14:59.609Z,1004.65
2018-04-10T05:16:00.181Z,1004.67
2018-04-10T05:17:00.756Z,1004.71
2018-04-10T05:18:01.329Z,1004.61
2018-04-10T05:19:01.903Z,1004.56
2018-04-10T05:20:02.527Z,1004.58
2018-04-10T05:21:03.102Z,1004.57
2018-04-10T05:22:03.678Z,1004.47
2018-04-10T05:23:04.254Z,1004.54
2018-04-10T05:24:04.883Z,1004.51
2018-04-10T05:25:05.453Z,1004.41
2018-04-10T05:26:06.028Z,1004.50
2018-04-10T05:27:06.601Z,1004.43
2018-04-10T05:28:07.224Z,1004.41
2018-04-10T05:29:07.800Z,1004.38
2018-04-10T05:30:08.376Z,1004.36
2018-04-10T05:31:09.051Z,1004.30
2018-04-10T05:32:09.679Z,1004.34
2018-04-10T05:33:10.250Z,1004.39
2018-04-10T05:34:10.826Z,1004.23
2018-04-10T05:35:11.398Z,1004.22
2018-04-10T05:36:11.976Z,1004.17
2018-04-10T05:37:12.600Z,1004.25
2018-04-10T05:38:13.174Z,1004.19
2018-04-10T05:39:13.747Z,1004.18
2018-04-10T05:40:14.322Z,1004.21
2018-04-10T05:41:14.941Z,1004.19
2018-04-10T05:42:15.476Z,1004.14
2018-04-10T05:43:16.050Z,1004.17
2018-04-10T05:44:16.624Z,1004.10
2018-04-10T05:45:17.199Z,1004.06
2018-04-10T05:46:17.823Z,1004.10
2018-04-10T05:47:18.397Z,1003.99
2018-04-10T05:48:19.023Z,1003.93
2018-04-10T05:49:19.596Z,1003.87
2018-04-10T05:50:20.220Z,1003.96
2018-04-10T05:51:20.793Z,1003.89
2018-04-10T05:52:21.368Z,1003.90
2018-04-10T05:53:21.944Z,1003.86
2018-04-10T05:54:22.519Z,1003.80
2018-04-10T05:55:23.095Z,1003.75
2018-04-10T05:56:23.673Z,1003.75
2018-04-10T05:57:24.245Z,1003.81
2018-04-10T05:58:24.827Z,1003.81
2018-04-10T05:59:25.394Z,1003.77
2018-04-10T06:00:25.967Z,1003.88
2018-04-10T06:01:26.542Z,1003.76
2018-04-10T06:02:27.120Z,1003.77
2018-04-10T06:03:27.694Z,1003.80
2018-04-10T06:04:28.268Z,1003.78
2018-04-10T06:05:28.842Z,1003.78
2018-04-10T06:06:29.417Z,1003.76
2018-04-10T06:07:30.043Z,1003.78
2018-04-10T06:08:30.618Z,1003.79
2018-04-10T06:09:31.242Z,1003.78
2018-04-10T06:10:31.865Z,1003.79
2018-04-10T06:11:32.440Z,1003.65
2018-04-10T06:12:33.015Z,1003.69
2018-04-10T06:13:33.591Z,1003.66
2018-04-10T06:14:34.164Z,1003.69
2018-04-10T06:15:34.738Z,1003.62
2018-04-10T06:16:35.312Z,1003.60
2018-04-10T06:17:35.891Z,1003.54
2018-04-10T06:18:36.461Z,1003.58
2018-04-10T06:19:37.036Z,1003.60
2018-04-10T06:20:37.609Z,1003.60
2018-04-10T06:21:38.184Z,1003.53
2018-04-10T06:22:38.760Z,1003.58
2018-04-10T06:23:39.331Z,1003.58
2018-04-10T06:24:39.905Z,1003.63
2018-04-10T06:25:40.479Z,1003.57
2018-04-10T06:26:41.056Z,1003.51
2018-04-10T06:27:41.625Z,1003.54
2018-04-10T06:28:42.198Z,1003.56
2018-04-10T06:29:42.823Z,1003.58
2018-04-10T06:30:43.448Z,1003.56
2018-04-10T06:31:44.021Z,1003.61
2018-04-10T06:32:44.647Z,1003.67
2018-04-10T06:33:45.221Z,1003.72
2018-04-10T06:34:45.803Z,1003.78
2018-04-10T06:35:46.373Z,1003.67
2018-04-10T06:36:46.948Z,1003.64
2018-04-10T06:37:47.524Z,1003.58
2018-04-10T06:38:48.097Z,1003.65
2018-04-10T06:39:48.673Z,1003.64
2018-04-10T06:40:49.247Z,1003.64
2018-04-10T06:41:49.822Z,1003.67
2018-04-10T06:42:50.396Z,1003.68
2018-04-10T06:43:50.970Z,1003.57
2018-04-10T06:44:51.544Z,1003.57
2018-04-10T06:45:52.117Z,1003.52
2018-04-10T06:46:52.746Z,1003.50
2018-04-10T06:47:53.316Z,1003.50
2018-04-10T06:48:53.941Z,1003.50
2018-04-10T06:49:54.515Z,1003.47
2018-04-10T06:50:55.089Z,1003.41
2018-04-10T06:51:55.661Z,1003.40
2018-04-10T06:52:56.246Z,1003.34
2018-04-10T06:53:56.810Z,1003.35
2018-04-10T06:54:57.383Z,1003.46
2018-04-10T06:55:57.957Z,1003.44
2018-04-10T06:56:58.531Z,1003.38
2018-04-10T06:57:59.154Z,1003.28
2018-04-10T06:58:59.728Z,1003.32
2018-04-10T07:00:00.306Z,1003.32
2018-04-10T07:01:00.879Z,1003.33
2018-04-10T07:02:01.455Z,1003.30
2018-04-10T07:03:02.029Z,1003.39
2018-04-10T07:04:02.754Z,1003.41
2018-04-10T07:05:03.329Z,1003.36
2018-04-10T07:06:03.952Z,1003.42
2018-04-10T07:07:04.525Z,1003.39
2018-04-10T07:08:05.099Z,1003.43
2018-04-10T07:09:05.673Z,1003.45
2018-04-10T07:10:06.247Z,1003.45
2018-04-10T07:11:06.819Z,1003.45
2018-04-10T07:12:07.393Z,1003.43
2018-04-10T07:13:08.018Z,1003.48
2018-04-10T07:14:08.593Z,1003.41
2018-04-10T07:15:09.167Z,1003.38
2018-04-10T07:16:09.743Z,1003.41
2018-04-10T07:17:10.315Z,1003.63
2018-04-10T07:18:10.889Z,1003.44
2018-04-10T07:19:11.463Z,1003.53
2018-04-10T07:20:12.038Z,1003.60
2018-04-10T07:21:12.610Z,1003.55
2018-04-10T07:22:13.184Z,1003.52
2018-04-10T07:23:13.759Z,1003.57
2018-04-10T07:24:14.381Z,1003.61
2018-04-10T07:25:14.956Z,1003.53
2018-04-10T07:26:15.531Z,1003.52
2018-04-10T07:27:21.160Z,1003.40
2018-04-10T07:28:21.737Z,1003.45
2018-04-10T07:29:22.360Z,1003.42
2018-04-10T07:30:22.932Z,1003.29
2018-04-10T07:31:23.506Z,1003.26
2018-04-10T07:32:24.084Z,1003.25
2018-04-10T07:33:24.806Z,1003.21
2018-04-10T07:34:25.380Z,1003.18
2018-04-10T07:35:25.955Z,1003.17
2018-04-10T07:36:26.534Z,1003.13
2018-04-10T07:37:27.107Z,1003.12
2018-04-10T07:38:27.724Z,1003.13
2018-04-10T07:39:28.298Z,1003.04
2018-04-10T07:40:28.874Z,1003.16
2018-04-10T07:41:29.447Z,1003.20
2018-04-10T07:42:30.022Z,1003.16
2018-04-10T07:43:30.644Z,1003.04
2018-04-10T07:44:31.217Z,1003.09
2018-04-10T07:45:31.841Z,1003.04
2018-04-10T07:46:32.414Z,1003.04
2018-04-10T07:47:32.989Z,1003.04
2018-04-10T07:48:33.563Z,1002.97
2018-04-10T07:49:34.192Z,1003.01
2018-04-10T07:50:34.805Z,1003.02
2018-04-10T07:51:35.379Z,1003.05
2018-04-10T07:52:35.951Z,1003.02
2018-04-10T07:53:36.525Z,1003.07
2018-04-10T07:54:37.140Z,1003.03
2018-04-10T07:55:37.714Z,1003.03
2018-04-10T07:56:38.287Z,1003.06
2018-04-10T07:57:38.860Z,1003.08
2018-04-10T07:58:39.432Z,1003.05
2018-04-10T07:59:40.006Z,1003.02
2018-04-10T08:00:40.674Z,1002.95
2018-04-10T08:01:41.203Z,1002.95
2018-04-10T08:02:41.779Z,1003.05
2018-04-10T08:03:42.353Z,1003.03
2018-04-10T08:04:43.005Z,1003.06
2018-04-10T08:05:43.552Z,1003.11
2018-04-10T08:06:44.125Z,1003.05
2018-04-10T08:07:44.698Z,1003.09
2018-04-10T08:08:45.272Z,1002.99
2018-04-10T08:09:45.847Z,1003.01
2018-04-10T08:10:46.473Z,1003.02
2018-04-10T08:11:47.046Z,1003.04
2018-04-10T08:12:47.620Z,1003.06
2018-04-10T08:13:48.196Z,1003.03
2018-04-10T08:14:48.822Z,1003.03
2018-04-10T08:15:49.344Z,1002.97
2018-04-10T08:16:49.918Z,1003.00
2018-04-10T08:17:50.541Z,1003.03
2018-04-10T08:18:51.113Z,1003.04
2018-04-10T08:19:51.739Z,1003.00
2018-04-10T08:20:52.365Z,1003.03
2018-04-10T08:21:52.941Z,1002.97
2018-04-10T08:22:53.554Z,1002.98
2018-04-10T08:23:54.128Z,1002.95
2018-04-10T08:24:54.700Z,1003.00
2018-04-10T08:25:55.323Z,1002.93
2018-04-10T08:26:55.896Z,1002.95
2018-04-10T08:27:56.471Z,1002.95
2018-04-10T08:28:57.045Z,1002.94
2018-04-10T08:29:57.620Z,1002.89
2018-04-10T08:30:58.194Z,1002.87
2018-04-10T08:31:58.769Z,1002.88
2018-04-10T08:32:59.341Z,1002.86
2018-04-10T08:33:59.917Z,1002.89
2018-04-10T08:35:00.490Z,1002.86
2018-04-10T08:36:01.063Z,1002.84
2018-04-10T08:37:01.636Z,1002.82
2018-04-10T08:38:02.259Z,1002.80
2018-04-10T08:39:02.881Z,1002.83
2018-04-10T08:40:03.455Z,1002.83
2018-04-10T08:41:04.033Z,1002.82
2018-04-10T08:42:04.606Z,1002.85
2018-04-10T08:43:05.179Z,1002.88
2018-04-10T08:44:05.803Z,1002.92
2018-04-10T08:45:06.394Z,1002.83
2018-04-10T08:46:06.948Z,1002.92
2018-04-10T08:47:07.522Z,1002.89
2018-04-10T08:48:08.095Z,1002.88
2018-04-10T08:49:08.667Z,1002.85
2018-04-10T08:50:09.240Z,1002.86
2018-04-10T08:51:09.817Z,1002.76
2018-04-10T08:52:10.386Z,1002.74
2018-04-10T08:53:10.960Z,1002.71
2018-04-10T08:54:11.533Z,1002.77
2018-04-10T08:55:12.107Z,1002.68
2018-04-10T08:56:12.730Z,1002.61
2018-04-10T08:57:13.304Z,1002.54
2018-04-10T08:58:13.882Z,1002.54
2018-04-10T08:59:14.455Z,1002.50
2018-04-10T09:00:15.080Z,1002.52
2018-04-10T09:01:15.657Z,1002.49
2018-04-10T09:02:16.280Z,1002.56
2018-04-10T09:03:16.855Z,1002.64
2018-04-10T09:04:17.428Z,1002.65
2018-04-10T09:05:18.003Z,1002.81
2018-04-10T09:06:18.574Z,1002.78
2018-04-10T09:07:19.149Z,1002.83
2018-04-10T09:08:19.723Z,1002.82
2018-04-10T09:09:20.314Z,1002.80
2018-04-10T09:11:05.384Z,1002.87
2018-04-10T09:12:05.958Z,1002.85
2018-04-10T09:13:06.535Z,1002.85
2018-04-10T09:14:07.108Z,1002.83
2018-04-10T09:15:07.682Z,1002.77
2018-04-10T09:16:08.307Z,1002.89
2018-04-10T09:17:08.931Z,1002.83
2018-04-10T09:18:09.506Z,1002.81
2018-04-10T09:19:10.131Z,1002.79
2018-04-10T09:20:10.704Z,1002.68
2018-04-10T09:21:11.277Z,1002.67
2018-04-10T09:22:11.852Z,1002.79
2018-04-10T09:23:12.426Z,1002.69
2018-04-10T09:24:12.999Z,1002.70
2018-04-10T09:25:13.573Z,1002.71
2018-04-10T09:26:14.189Z,1002.63
2018-04-10T09:27:14.764Z,1002.77
2018-04-10T09:28:15.387Z,1002.76
2018-04-10T09:29:15.961Z,1002.80
2018-04-10T09:30:16.538Z,1002.70
2018-04-10T09:31:17.111Z,1002.71
2018-04-10T09:32:17.686Z,1002.74
2018-04-10T09:33:18.260Z,1002.62
2018-04-10T09:34:18.885Z,1002.61
2018-04-10T09:35:19.512Z,1002.66
2018-04-10T09:36:20.085Z,1002.63
2018-04-10T09:37:20.661Z,1002.66
2018-04-10T09:38:21.285Z,1002.70
2018-04-10T09:39:21.858Z,1002.76
2018-04-10T09:40:22.433Z,1002.79
2018-04-10T09:41:23.009Z,1002.77
2018-04-10T09:42:23.585Z,1002.80
2018-04-10T09:43:24.162Z,1002.88
2018-04-10T09:44:24.734Z,1002.88
2018-04-10T09:45:25.308Z,1002.78
2018-04-10T09:46:25.883Z,1002.79
2018-04-10T09:47:26.458Z,1002.79
2018-04-10T09:48:27.031Z,1002.70
2018-04-10T09:49:27.605Z,1002.73
2018-04-10T09:50:28.179Z,1002.65
2018-04-10T09:51:28.755Z,1002.67
2018-04-10T09:52:29.373Z,1002.68
2018-04-10T09:53:29.945Z,1002.79
2018-04-10T09:54:30.519Z,1002.72
2018-04-10T09:55:31.092Z,1002.66
2018-04-10T09:56:31.715Z,1002.75
2018-04-10T09:57:32.290Z,1002.77
2018-04-10T09:58:32.865Z,1002.79
2018-04-10T09:59:33.440Z,1002.86
2018-04-10T10:00:34.012Z,1002.77
2018-04-10T10:01:34.638Z,1002.81
2018-04-10T10:02:35.211Z,1002.78
2018-04-10T10:03:35.789Z,1002.86
2018-04-10T10:04:36.357Z,1002.86
2018-04-10T10:05:37.022Z,1002.77
2018-04-10T10:06:37.648Z,1002.78
2018-04-10T10:07:38.222Z,1002.74
2018-04-10T10:08:38.796Z,1002.66
2018-04-10T10:09:39.378Z,1002.49
2018-04-10T10:10:39.985Z,1002.48
2018-04-10T10:11:40.560Z,1002.54
2018-04-10T10:12:41.138Z,1002.50
2018-04-10T10:13:41.707Z,1002.48
2018-04-10T10:14:42.297Z,1002.43
2018-04-10T10:15:42.905Z,1002.45
2018-04-10T10:16:43.480Z,1002.40
2018-04-10T10:17:44.107Z,1002.46
2018-04-10T10:18:44.680Z,1002.38
2018-04-10T10:19:45.254Z,1002.43
2018-04-10T10:20:45.832Z,1002.41
2018-04-10T10:21:46.403Z,1002.52
2018-04-10T10:22:46.976Z,1002.57
2018-04-10T10:23:47.601Z,1002.63
2018-04-10T10:24:48.177Z,1002.67
2018-04-10T10:25:48.751Z,1002.61
2018-04-10T10:26:49.326Z,1002.61
2018-04-10T10:27:49.899Z,1002.63
2018-04-10T10:28:50.473Z,1002.61
2018-04-10T10:29:51.047Z,1002.70
2018-04-10T10:30:51.620Z,1002.64
2018-04-10T10:31:52.194Z,1002.68
2018-04-10T10:32:52.821Z,1002.68
2018-04-10T10:33:53.393Z,1002.63
2018-04-10T10:34:53.969Z,1002.57
2018-04-10T10:35:54.544Z,1002.64
2018-04-10T10:36:55.117Z,1002.56
2018-04-10T10:37:55.693Z,1002.56
2018-04-10T10:38:56.316Z,1002.55
2018-04-10T10:39:56.939Z,1002.62
2018-04-10T10:40:57.516Z,1002.57
2018-04-10T10:41:58.089Z,1002.61
2018-04-10T10:42:58.664Z,1002.64
2018-04-10T10:43:59.238Z,1002.70
2018-04-10T10:44:59.813Z,1002.63
2018-04-10T10:46:00.386Z,1002.70
2018-04-10T10:47:00.968Z,1002.74
2018-04-10T10:48:01.534Z,1002.75
2018-04-10T10:49:02.113Z,1002.72
2018-04-10T10:50:02.680Z,1002.75
2018-04-10T10:51:03.255Z,1002.73
2018-04-10T10:52:03.870Z,1002.64
2018-04-10T10:53:04.444Z,1002.63
2018-04-10T10:54:05.167Z,1002.65
2018-04-10T10:55:05.741Z,1002.57
2018-04-10T10:56:06.317Z,1002.66
2018-04-10T10:57:06.982Z,1002.57
2018-04-10T10:58:07.599Z,1002.60
2018-04-10T10:59:08.132Z,1002.60
2018-04-10T11:00:08.707Z,1002.54
2018-04-10T11:01:09.282Z,1002.52
2018-04-10T11:02:09.856Z,1002.46
2018-04-10T11:03:10.432Z,1002.42
2018-04-10T11:04:11.156Z,1002.44
2018-04-10T11:05:11.729Z,1002.34
2018-04-10T11:06:12.308Z,1002.33
2018-04-10T11:07:12.876Z,1002.36
2018-04-10T11:08:13.449Z,1002.26
2018-04-10T11:09:14.022Z,1002.31
2018-04-10T11:10:14.596Z,1002.30
2018-04-10T11:11:15.169Z,1002.39
2018-04-10T11:12:15.743Z,1002.37
2018-04-10T11:13:16.317Z,1002.45
2018-04-10T11:14:16.891Z,1002.37
2018-04-10T11:15:17.465Z,1002.45
2018-04-10T11:16:18.043Z,1002.45
2018-04-10T11:17:18.706Z,1002.38
2018-04-10T11:18:19.283Z,1002.38
2018-04-10T11:19:19.857Z,1002.33
2018-04-10T11:20:20.482Z,1002.28
2018-04-10T11:21:21.061Z,1002.27
2018-04-10T11:22:21.633Z,1002.22
2018-04-10T11:23:22.208Z,1002.27
2018-04-10T11:24:22.835Z,1002.25
2018-04-10T11:25:23.411Z,1002.27
2018-04-10T11:26:23.985Z,1002.36
2018-04-10T11:27:24.558Z,1002.34
2018-04-10T11:28:25.132Z,1002.27
2018-04-10T11:29:25.711Z,1002.27
2018-04-10T11:30:26.483Z,1002.17
2018-04-10T11:31:27.205Z,1002.19
2018-04-10T11:32:27.779Z,1002.15
2018-04-10T11:33:28.354Z,1002.15
2018-04-10T11:34:29.028Z,1002.16
2018-04-10T11:35:29.602Z,1002.11
2018-04-10T11:36:30.178Z,1002.09
2018-04-10T11:37:30.751Z,1002.05
2018-04-10T11:38:31.327Z,1002.12
2018-04-10T11:39:31.903Z,1002.18
2018-04-10T11:40:32.568Z,1002.19
2018-04-10T11:41:33.140Z,1002.12
2018-04-10T11:42:33.714Z,1002.11
2018-04-10T11:43:34.289Z,1002.15
2018-04-10T11:44:34.864Z,1002.04
2018-04-10T11:45:35.591Z,1002.05
2018-04-10T11:46:36.173Z,1002.05
2018-04-10T11:47:36.742Z,1002.07
2018-04-10T11:48:37.368Z,1001.98
2018-04-10T11:49:37.941Z,1001.93
2018-04-10T11:50:38.517Z,1001.95
2018-04-10T11:51:39.094Z,1001.92
2018-04-10T11:52:39.670Z,1001.89
2018-04-10T11:53:40.251Z,1001.86
2018-04-10T11:54:40.923Z,1001.89
2018-04-10T11:55:41.493Z,1001.81
2018-04-10T11:56:42.109Z,1001.88
2018-04-10T11:57:42.685Z,1001.77
2018-04-10T11:58:43.312Z,1001.84
2018-04-10T11:59:43.885Z,1001.75
2018-04-10T12:00:44.461Z,1001.76
2018-04-10T12:01:45.038Z,1001.78
2018-04-10T12:02:45.616Z,1001.80
2018-04-10T12:03:46.192Z,1001.76
2018-04-10T12:04:46.765Z,1001.81
2018-04-10T12:05:47.341Z,1001.79
2018-04-10T12:06:47.918Z,1001.82
2018-04-10T12:07:48.496Z,1001.79
2018-04-10T12:08:49.118Z,1001.84
2018-04-10T12:09:49.693Z,1001.85
2018-04-10T12:10:50.271Z,1001.85
2018-04-10T12:11:50.884Z,1001.89
2018-04-10T12:12:51.459Z,1001.83
2018-04-10T12:13:52.084Z,1001.83